Koppie Airport

Jump to: basic info | weather | runways | comments

Related pages: nearby airports | nearby navaids | notams | map

Basic information (top)

Codes: 7IS5
Location: lon 42.121399, lat -88.378098, elev 890 ft / 271 m msl
Status: small_airport

Weather (top)

Current conditions for Dupage Airport 14nm (26km) SSE (rec'd 2015/04/27 19:52Z):

KDPA 271952Z 34007KT 10SM SCT060 16/02 A3009 RMK AO2 SLP191 T01560022 $

Airport forecast for Dupage Airport 14nm (26km) SSE (rec'd 2015/04/27 18:36Z):

TAF KDPA 271733Z 2718/2818 36013G21KT P6SM SCT040 
     FM272200 03013KT P6SM SCT035 
     FM280200 02006KT P6SM FEW250 
     FM281500 03008KT P6SM SCT030

Runways (top)

N/S: 2,300 x 100 ft (701 x 30 m) — grass — not lighted

Latest comments (top)

No comments yet for Koppie Airport

More... (top)

See also NOTAMs and nearby airports and navaids, or visit the Koppie Airport page at the main OurAirports website..